createdAt,value
2023-03-16T00:00:02.856Z,100007.59
2023-03-16T00:01:06.759Z,100016.25
2023-03-16T00:02:11.160Z,100023.03
2023-03-16T00:03:19.560Z,100020.47
2023-03-16T00:04:23.530Z,100021.16
2023-03-16T00:05:26.327Z,100024.78
2023-03-16T00:06:30.116Z,100019.69
2023-03-16T00:07:32.450Z,100015.59
2023-03-16T00:08:38.545Z,100015.47
2023-03-16T00:09:41.998Z,100021.47
2023-03-16T00:10:47.274Z,100017.13
2023-03-16T00:11:49.989Z,100025.81
2023-03-16T00:12:53.984Z,100031.00
2023-03-16T00:13:56.790Z,100035.00
2023-03-16T00:15:00.387Z,100029.91
2023-03-16T00:16:04.735Z,100027.34
2023-03-16T00:17:08.472Z,100009.59
2023-03-16T00:18:11.020Z,100020.78
2023-03-16T00:19:14.708Z,100021.56
2023-03-16T00:20:18.379Z,100020.69
2023-03-16T00:21:22.036Z,100022.25
2023-03-16T00:22:25.986Z,100022.16
2023-03-16T00:23:30.044Z,100014.56
2023-03-16T00:24:34.102Z,100009.16
2023-03-16T00:25:37.990Z,100029.13
2023-03-16T00:26:40.611Z,100023.13
2023-03-16T00:27:44.393Z,100024.13
2023-03-16T00:28:46.686Z,100018.22
2023-03-16T00:29:56.215Z,100024.13
2023-03-16T00:30:59.535Z,100023.25
2023-03-16T00:32:03.687Z,100017.25
2023-03-16T00:33:06.574Z,100021.38
2023-03-16T00:34:10.287Z,100009.47
2023-03-16T00:35:12.841Z,100011.25
2023-03-16T00:36:17.057Z,99989.75
2023-03-16T00:37:21.010Z,100013.72
2023-03-16T00:38:24.907Z,99984.22
2023-03-16T00:39:27.521Z,100011.63
2023-03-16T00:40:34.111Z,100018.03
2023-03-16T00:41:38.397Z,99999.91
2023-03-16T00:42:43.031Z,100006.22
2023-03-16T00:43:46.041Z,100004.56
2023-03-16T00:44:49.720Z,99992.69
2023-03-16T00:45:57.774Z,99985.59
2023-03-16T00:47:01.938Z,99978.78
2023-03-16T00:48:04.612Z,99995.81
2023-03-16T00:49:08.574Z,99998.38
2023-03-16T00:50:12.010Z,99968.22
2023-03-16T00:51:17.876Z,100007.78
2023-03-16T00:52:21.040Z,99991.47
2023-03-16T00:53:24.727Z,100008.13
2023-03-16T00:54:27.562Z,100004.78
2023-03-16T00:55:33.721Z,99976.31
2023-03-16T00:56:36.267Z,99999.13
2023-03-16T00:57:40.074Z,100016.19
2023-03-16T00:58:43.459Z,100006.19
2023-03-16T00:59:47.628Z,100012.28
2023-03-16T01:00:51.440Z,100004.44
2023-03-16T01:01:54.774Z,100006.53
2023-03-16T01:02:57.352Z,100006.53
2023-03-16T01:04:01.889Z,100010.06
2023-03-16T01:05:06.203Z,100005.72
2023-03-16T01:06:11.454Z,100007.59
2023-03-16T01:07:15.270Z,100007.94
2023-03-16T01:08:18.673Z,100010.50
2023-03-16T01:09:21.325Z,100004.56
2023-03-16T01:10:25.106Z,100009.59
2023-03-16T01:11:28.900Z,100015.69
2023-03-16T01:12:32.526Z,100013.91
2023-03-16T01:13:35.365Z,100011.47
2023-03-16T01:14:40.168Z,100005.56
2023-03-16T01:15:43.168Z,100002.34
2023-03-16T01:16:46.875Z,99978.28
2023-03-16T01:17:49.387Z,99997.88
2023-03-16T01:18:54.082Z,100000.56
2023-03-16T01:19:56.656Z,100004.91
2023-03-16T01:21:00.469Z,100001.13
2023-03-16T01:22:02.727Z,100002.34
2023-03-16T01:23:06.741Z,100005.09
2023-03-16T01:24:09.841Z,100002.53
2023-03-16T01:25:14.879Z,100000.84
2023-03-16T01:26:18.366Z,100000.97
2023-03-16T01:27:26.374Z,99999.97
2023-03-16T01:28:31.331Z,99995.66
2023-03-16T01:29:35.210Z,99997.63
2023-03-16T01:30:37.864Z,99989.94
2023-03-16T01:31:42.114Z,99984.84
2023-03-16T01:32:44.910Z,99978.75
2023-03-16T01:33:48.729Z,99979.34
2023-03-16T01:34:52.626Z,99987.09
2023-03-16T01:35:56.869Z,99975.19
2023-03-16T01:36:59.822Z,99978.44
2023-03-16T01:38:04.782Z,99981.78
2023-03-16T01:39:07.600Z,99985.00
2023-03-16T01:40:13.463Z,99968.56
2023-03-16T01:41:16.553Z,99982.38
2023-03-16T01:42:20.297Z,99974.47
2023-03-16T01:43:24.928Z,99981.56
2023-03-16T01:44:31.117Z,99977.91
2023-03-16T01:46:14.941Z,99974.56
2023-03-16T01:47:18.668Z,99975.16
2023-03-16T01:48:24.114Z,99987.16
2023-03-16T01:49:32.978Z,99976.72
2023-03-16T01:50:36.020Z,99983.91
2023-03-16T01:51:44.689Z,99985.56
2023-03-16T01:52:47.351Z,99979.59
2023-03-16T01:53:54.406Z,99984.59
2023-03-16T01:55:02.308Z,99980.47
2023-03-16T01:56:08.942Z,99982.16
2023-03-16T01:57:16.583Z,99983.13
2023-03-16T01:58:19.199Z,99980.47
2023-03-16T01:59:29.494Z,99981.47
2023-03-16T02:00:33.691Z,99979.47
2023-03-16T02:01:37.770Z,99981.56
2023-03-16T02:02:43.829Z,99971.34
2023-03-16T02:03:47.883Z,99970.44
2023-03-16T02:04:54.866Z,99976.44
2023-03-16T02:06:03.403Z,99978.91
2023-03-16T02:07:09.835Z,99978.09
2023-03-16T02:08:13.878Z,99979.91
2023-03-16T02:09:18.079Z,99984.31
2023-03-16T02:10:22.568Z,99975.75
2023-03-16T02:11:26.282Z,99979.91
2023-03-16T02:12:30.606Z,99986.69
2023-03-16T02:13:37.040Z,99988.03
2023-03-16T02:14:42.286Z,99990.88
2023-03-16T02:15:45.036Z,99985.91
2023-03-16T02:16:49.707Z,99989.22
2023-03-16T02:17:53.004Z,99991.78
2023-03-16T02:18:56.667Z,99985.69
2023-03-16T02:20:11.021Z,99997.72
2023-03-16T02:21:25.744Z,99998.56
2023-03-16T02:22:29.012Z,99997.59
2023-03-16T02:23:33.082Z,99999.38
2023-03-16T02:24:36.940Z,99992.47
2023-03-16T02:25:46.504Z,99998.47
2023-03-16T02:26:55.813Z,100002.69
2023-03-16T02:28:09.793Z,100006.22
2023-03-16T02:29:21.289Z,99996.91
2023-03-16T02:30:27.138Z,99996.13
2023-03-16T02:31:30.192Z,99997.78
2023-03-16T02:32:35.305Z,99993.38
2023-03-16T02:33:39.052Z,99999.59
2023-03-16T02:34:43.802Z,100003.13
2023-03-16T02:35:46.556Z,100004.69
2023-03-16T02:36:53.697Z,100011.56
2023-03-16T02:37:56.404Z,100009.00
2023-03-16T02:39:00.095Z,100006.44
2023-03-16T02:40:06.145Z,100009.91
2023-03-16T02:41:14.079Z,99971.22
2023-03-16T02:42:19.891Z,100009.22
2023-03-16T02:43:29.028Z,100017.78
2023-03-16T02:44:35.573Z,100000.56
2023-03-16T02:45:44.968Z,100005.69
2023-03-16T02:46:49.271Z,100009.13
2023-03-16T02:47:56.564Z,100008.22
2023-03-16T02:49:03.960Z,99997.78
2023-03-16T02:50:08.639Z,100003.69
2023-03-16T02:51:11.972Z,100005.25
2023-03-16T02:52:15.734Z,100002.69
2023-03-16T02:53:18.293Z,99996.69
2023-03-16T02:54:22.131Z,100003.59
2023-03-16T02:55:24.935Z,99994.72
2023-03-16T02:56:29.017Z,100001.59
2023-03-16T02:57:32.125Z,99978.66
2023-03-16T02:58:36.020Z,100008.50
2023-03-16T02:59:38.438Z,100002.19
2023-03-16T03:00:43.901Z,99998.72
2023-03-16T03:01:46.661Z,100001.06
2023-03-16T03:02:50.431Z,100011.50
2023-03-16T03:03:52.708Z,100008.75
2023-03-16T03:04:56.486Z,100006.19
2023-03-16T03:05:58.611Z,100003.53
2023-03-16T03:07:05.132Z,100005.19
2023-03-16T03:08:09.072Z,100001.00
2023-03-16T03:09:12.047Z,100005.19
2023-03-16T03:10:15.648Z,100005.00
2023-03-16T03:11:19.911Z,100003.78
2023-03-16T03:12:23.553Z,99997.56
2023-03-16T03:13:26.109Z,100009.44
2023-03-16T03:14:29.810Z,100000.66
2023-03-16T03:15:32.680Z,100005.88
2023-03-16T03:16:38.075Z,100008.31
2023-03-16T03:17:40.838Z,100009.22
2023-03-16T03:18:44.495Z,100013.63
2023-03-16T03:19:47.103Z,100005.09
2023-03-16T03:20:50.779Z,100017.78
2023-03-16T03:21:57.001Z,100012.66
2023-03-16T03:23:00.729Z,100014.44
2023-03-16T03:24:03.381Z,100015.22
2023-03-16T03:25:09.068Z,99989.38
2023-03-16T03:26:11.660Z,100012.56
2023-03-16T03:27:15.388Z,100013.56
2023-03-16T03:28:18.001Z,100019.56
2023-03-16T03:29:21.586Z,100018.75
2023-03-16T03:30:25.966Z,100012.09
2023-03-16T03:31:29.872Z,100011.50
2023-03-16T03:32:33.798Z,100014.06
2023-03-16T03:33:37.506Z,100013.19
2023-03-16T03:34:40.386Z,100004.44
2023-03-16T03:35:43.984Z,100006.41
2023-03-16T03:36:46.447Z,100014.06
2023-03-16T03:37:51.169Z,100021.53
2023-03-16T03:38:55.183Z,100025.19
2023-03-16T03:39:58.847Z,100013.19
2023-03-16T03:41:01.467Z,100017.59
2023-03-16T03:42:05.393Z,100022.16
2023-03-16T03:43:08.043Z,100016.25
2023-03-16T03:44:11.944Z,100012.03
2023-03-16T03:45:15.920Z,99996.84
2023-03-16T03:46:19.747Z,100014.72
2023-03-16T03:47:22.093Z,100016.47
2023-03-16T03:48:27.815Z,100005.16
2023-03-16T03:49:31.124Z,100009.59
2023-03-16T03:50:34.768Z,100002.69
2023-03-16T03:51:37.441Z,100006.44
2023-03-16T03:52:41.159Z,99996.91
2023-03-16T03:53:43.355Z,100005.00
2023-03-16T03:54:47.268Z,99992.00
2023-03-16T03:55:50.260Z,99998.31
2023-03-16T03:56:54.419Z,99991.53
2023-03-16T03:57:57.034Z,100007.97
2023-03-16T03:59:00.666Z,100000.28
2023-03-16T04:00:08.112Z,99988.19
2023-03-16T04:01:11.847Z,100005.28
2023-03-16T04:02:14.558Z,100004.53
2023-03-16T04:03:18.839Z,99995.97
2023-03-16T04:04:22.841Z,99993.53
2023-03-16T04:05:27.696Z,100001.97
2023-03-16T04:06:30.321Z,99990.38
2023-03-16T04:07:34.896Z,99995.69
2023-03-16T04:08:37.805Z,99983.00
2023-03-16T04:09:42.128Z,99972.47
2023-03-16T04:10:45.106Z,99985.06
2023-03-16T04:11:48.756Z,99985.19
2023-03-16T04:12:51.394Z,99987.06
2023-03-16T04:13:55.203Z,99979.38
2023-03-16T04:14:57.907Z,99976.84
2023-03-16T04:16:03.548Z,99971.59
2023-03-16T04:17:06.315Z,99972.59
2023-03-16T04:18:10.132Z,99973.66
2023-03-16T04:19:12.488Z,99978.78
2023-03-16T04:20:19.806Z,99980.97
2023-03-16T04:21:22.888Z,99987.34
2023-03-16T04:22:26.666Z,99985.47
2023-03-16T04:23:28.855Z,99995.91
2023-03-16T04:24:34.545Z,99965.69
2023-03-16T04:25:38.972Z,99983.59
2023-03-16T04:26:42.618Z,99986.88
2023-03-16T04:27:47.111Z,99990.44
2023-03-16T04:28:50.674Z,99991.22
2023-03-16T04:29:55.955Z,99999.09
2023-03-16T04:31:03.129Z,99995.84
2023-03-16T04:32:06.155Z,99999.50
2023-03-16T04:33:09.795Z,99988.25
2023-03-16T04:34:14.057Z,99991.44
2023-03-16T04:35:19.545Z,99985.44
2023-03-16T04:36:24.457Z,99996.75
2023-03-16T04:37:28.115Z,99986.53
2023-03-16T04:38:34.042Z,99984.72
2023-03-16T04:39:37.760Z,99984.84
2023-03-16T04:40:40.086Z,99982.19
2023-03-16T04:41:46.711Z,99979.81
2023-03-16T04:42:49.957Z,99984.94
2023-03-16T04:43:54.087Z,99980.78
2023-03-16T04:44:56.608Z,99982.50
2023-03-16T04:46:00.234Z,99979.03
2023-03-16T04:47:03.200Z,99939.34
2023-03-16T04:48:07.513Z,99978.25
2023-03-16T04:49:10.036Z,99951.25
2023-03-16T04:50:14.750Z,99985.84
2023-03-16T04:51:20.094Z,99988.31
2023-03-16T04:52:22.706Z,99977.66
2023-03-16T04:53:26.389Z,99994.88
2023-03-16T04:54:29.119Z,99993.22
2023-03-16T04:55:32.723Z,99996.75
2023-03-16T04:56:35.606Z,100000.28
2023-03-16T04:57:39.208Z,99990.88
2023-03-16T04:58:41.854Z,99992.41
2023-03-16T04:59:45.491Z,99990.47
2023-03-16T05:00:48.663Z,99985.91
2023-03-16T05:01:52.576Z,99984.44
2023-03-16T05:02:55.222Z,99982.78
2023-03-16T05:03:59.843Z,99957.66
2023-03-16T05:05:03.133Z,99972.44
2023-03-16T05:06:07.110Z,99977.06
2023-03-16T05:07:11.892Z,99979.94
2023-03-16T05:08:15.554Z,99982.59
2023-03-16T05:09:18.127Z,99980.91
2023-03-16T05:10:22.138Z,99984.56
2023-03-16T05:11:25.105Z,99989.19
2023-03-16T05:12:28.854Z,99991.75
2023-03-16T05:13:31.353Z,99990.38
2023-03-16T05:14:36.238Z,99989.56
2023-03-16T05:15:39.171Z,99991.63
2023-03-16T05:16:43.066Z,99985.81
2023-03-16T05:17:46.912Z,99984.28
2023-03-16T05:18:50.554Z,99987.91
2023-03-16T05:19:53.569Z,99987.91
2023-03-16T05:20:58.371Z,99990.16
2023-03-16T05:22:02.105Z,99982.59
2023-03-16T05:23:08.576Z,99983.66
2023-03-16T05:24:12.368Z,99967.03
2023-03-16T05:25:16.326Z,99976.97
2023-03-16T05:26:20.178Z,99977.06
2023-03-16T05:27:22.806Z,99978.84
2023-03-16T05:28:26.626Z,99974.69
2023-03-16T05:29:31.361Z,99971.03
2023-03-16T05:30:34.903Z,99979.03
2023-03-16T05:31:38.664Z,99980.78
2023-03-16T05:32:41.958Z,99979.41
2023-03-16T05:33:45.017Z,99976.94
2023-03-16T05:34:48.625Z,99964.03
2023-03-16T05:35:52.997Z,99973.00
2023-03-16T05:36:56.630Z,99974.28
2023-03-16T05:37:58.973Z,99971.72
2023-03-16T05:39:04.249Z,99974.53
2023-03-16T05:40:14.457Z,99969.41
2023-03-16T05:41:18.544Z,99966.16
2023-03-16T05:42:21.193Z,99973.06
2023-03-16T05:43:24.872Z,99946.59
2023-03-16T05:44:27.514Z,99965.19
2023-03-16T05:45:31.706Z,99959.44
2023-03-16T05:46:34.507Z,99961.72
2023-03-16T05:47:38.298Z,99966.94
2023-03-16T05:48:40.442Z,99969.63
2023-03-16T05:49:44.217Z,99968.53
2023-03-16T05:50:47.159Z,99969.31
2023-03-16T05:51:51.457Z,99961.94
2023-03-16T05:52:54.646Z,99958.66
2023-03-16T05:53:58.470Z,99963.59
2023-03-16T05:55:03.013Z,99958.56
2023-03-16T05:56:07.339Z,99961.72
2023-03-16T05:57:09.973Z,99957.56
2023-03-16T05:58:13.635Z,99958.41
2023-03-16T05:59:18.109Z,99962.00
2023-03-16T06:00:23.156Z,99950.78
2023-03-16T06:01:26.970Z,99956.88
2023-03-16T06:02:31.333Z,99959.91
2023-03-16T06:03:35.038Z,99961.81
2023-03-16T06:04:38.693Z,99954.28
2023-03-16T06:05:42.876Z,99961.97
2023-03-16T06:06:45.371Z,99954.56
2023-03-16T06:07:50.352Z,99959.19
2023-03-16T06:08:52.888Z,99951.69
2023-03-16T06:09:56.550Z,99945.84
2023-03-16T06:11:00.572Z,99940.63
2023-03-16T06:12:04.353Z,99956.69
2023-03-16T06:13:07.180Z,99960.22
2023-03-16T06:14:10.735Z,99962.03
2023-03-16T06:15:13.735Z,99960.94
2023-03-16T06:16:17.608Z,99951.88
2023-03-16T06:17:20.133Z,99954.25
2023-03-16T06:18:23.827Z,99947.34
2023-03-16T06:19:25.996Z,99954.44
2023-03-16T06:20:30.186Z,99947.78
2023-03-16T06:21:33.020Z,99945.41
2023-03-16T06:22:36.688Z,99945.69
2023-03-16T06:23:40.321Z,99945.88
2023-03-16T06:24:46.074Z,99942.69
2023-03-16T06:25:50.223Z,99950.97
2023-03-16T06:26:54.311Z,99944.66
2023-03-16T06:27:58.103Z,99942.34
2023-03-16T06:29:00.179Z,99950.25
2023-03-16T06:30:04.030Z,99945.59
2023-03-16T06:31:06.719Z,99936.19
2023-03-16T06:32:10.574Z,99937.00
2023-03-16T06:33:13.119Z,99936.47
2023-03-16T06:34:16.838Z,99945.19
2023-03-16T06:35:19.568Z,99938.81
2023-03-16T06:36:23.399Z,99937.31
2023-03-16T06:37:26.168Z,99938.75
2023-03-16T06:38:29.908Z,99938.75
2023-03-16T06:39:32.532Z,99935.31
2023-03-16T06:40:36.156Z,99937.94
2023-03-16T06:41:39.920Z,99935.31
2023-03-16T06:42:46.807Z,99935.47
2023-03-16T06:43:49.839Z,99932.19
2023-03-16T06:44:53.823Z,99929.16
2023-03-16T06:45:56.384Z,99931.00
2023-03-16T06:47:00.422Z,99928.78
2023-03-16T06:48:04.245Z,99920.03
2023-03-16T06:49:07.971Z,99938.91
2023-03-16T06:50:13.356Z,99924.38
2023-03-16T06:51:16.918Z,99931.91
2023-03-16T06:52:21.209Z,99927.56
2023-03-16T06:53:25.096Z,99922.28
2023-03-16T06:54:27.564Z,99912.88
2023-03-16T06:55:31.722Z,99921.63
2023-03-16T06:56:34.379Z,99931.19
2023-03-16T06:57:38.032Z,99918.19
2023-03-16T06:58:42.302Z,99914.47
2023-03-16T06:59:45.901Z,99919.34
2023-03-16T07:00:48.589Z,99920.84
2023-03-16T07:01:52.254Z,99927.56
2023-03-16T07:02:54.833Z,99918.81
2023-03-16T07:03:58.602Z,99922.53
2023-03-16T07:05:00.762Z,99916.06
2023-03-16T07:06:04.534Z,99921.38
2023-03-16T07:07:06.741Z,99916.22
2023-03-16T07:08:10.755Z,99903.84
2023-03-16T07:09:13.448Z,99922.53
2023-03-16T07:10:19.708Z,99913.84
2023-03-16T07:11:22.247Z,99904.97
2023-03-16T07:12:26.049Z,99906.75
2023-03-16T07:13:28.632Z,99905.78
2023-03-16T07:14:33.826Z,99908.25
2023-03-16T07:15:36.442Z,99901.34
2023-03-16T07:16:40.162Z,99905.63
2023-03-16T07:17:42.906Z,99907.38
2023-03-16T07:18:46.534Z,99896.91
2023-03-16T07:19:49.131Z,99898.16
2023-03-16T07:20:54.242Z,99890.38
2023-03-16T07:21:57.200Z,99902.59
2023-03-16T07:23:00.890Z,99902.59
2023-03-16T07:24:03.068Z,99906.66
2023-03-16T07:25:08.162Z,99905.97
2023-03-16T07:26:12.286Z,99912.00
2023-03-16T07:27:15.907Z,99905.78
2023-03-16T07:28:18.472Z,99906.56
2023-03-16T07:29:22.317Z,99899.94
2023-03-16T07:30:26.766Z,99897.38
2023-03-16T07:31:30.618Z,99906.84
2023-03-16T07:32:33.416Z,99895.59
2023-03-16T07:33:37.417Z,99896.94
2023-03-16T07:34:40.173Z,99887.38
2023-03-16T07:35:44.237Z,99881.59
2023-03-16T07:36:48.874Z,99883.38
2023-03-16T07:37:52.534Z,99892.13
2023-03-16T07:38:54.818Z,99889.06
2023-03-16T07:39:58.488Z,99888.03
2023-03-16T07:41:01.469Z,99900.75
2023-03-16T07:42:05.749Z,99900.75
2023-03-16T07:43:09.467Z,99887.25
2023-03-16T07:44:11.675Z,99903.81
2023-03-16T07:45:15.422Z,99898.09
2023-03-16T07:46:19.448Z,99894.09
2023-03-16T07:47:26.232Z,99898.00
2023-03-16T07:48:29.046Z,99893.81
2023-03-16T07:49:32.728Z,99898.38
2023-03-16T07:50:34.856Z,99894.53
2023-03-16T07:51:38.526Z,99893.06
2023-03-16T07:52:40.657Z,99895.66
2023-03-16T07:53:44.357Z,99893.88
2023-03-16T07:54:46.572Z,99901.41
2023-03-16T07:55:50.171Z,99883.69
2023-03-16T07:56:52.816Z,99882.00
2023-03-16T07:57:56.354Z,99886.47
2023-03-16T07:58:58.920Z,99888.59
2023-03-16T08:00:05.331Z,99881.97
2023-03-16T08:01:09.510Z,99882.13
2023-03-16T08:02:15.497Z,99879.69
2023-03-16T08:03:19.217Z,99875.28
2023-03-16T08:04:22.588Z,99883.09
2023-03-16T08:05:27.773Z,99865.44
2023-03-16T08:06:31.783Z,99880.19
2023-03-16T08:07:35.570Z,99876.97
2023-03-16T08:08:38.154Z,99876.91
2023-03-16T08:09:42.112Z,99880.00
2023-03-16T08:10:45.751Z,99871.00
2023-03-16T08:11:48.336Z,99863.00
2023-03-16T08:12:52.517Z,99875.63
2023-03-16T08:13:56.696Z,99870.72
2023-03-16T08:15:00.399Z,99867.38
2023-03-16T08:16:03.643Z,99874.13
2023-03-16T08:17:07.750Z,99869.22
2023-03-16T08:18:12.975Z,99863.91
2023-03-16T08:19:17.515Z,99866.16
2023-03-16T08:20:20.344Z,99870.72
2023-03-16T08:21:24.243Z,99867.38
2023-03-16T08:22:26.882Z,99866.53
2023-03-16T08:23:31.033Z,99872.00
2023-03-16T08:24:33.949Z,99863.41
2023-03-16T08:25:37.623Z,99859.44
2023-03-16T08:26:40.876Z,99863.84
2023-03-16T08:27:43.500Z,99861.56
2023-03-16T08:28:48.355Z,99860.94
2023-03-16T08:29:53.254Z,99854.44
2023-03-16T08:30:58.722Z,99857.13
2023-03-16T08:32:01.399Z,99853.84
2023-03-16T08:33:05.728Z,99857.63
2023-03-16T08:34:10.419Z,99851.53
2023-03-16T08:35:16.901Z,99850.63
2023-03-16T08:36:21.228Z,99849.00
2023-03-16T08:37:24.584Z,99849.69
2023-03-16T08:38:28.173Z,99844.38
2023-03-16T08:39:31.721Z,99852.25
2023-03-16T08:40:35.288Z,99843.41
2023-03-16T08:41:40.837Z,99846.72
2023-03-16T08:42:45.942Z,99840.53
2023-03-16T08:43:48.254Z,99843.09
2023-03-16T08:44:55.407Z,99843.09
2023-03-16T08:45:58.820Z,99838.59
2023-03-16T08:47:02.740Z,99829.03
2023-03-16T08:48:05.889Z,99835.22
2023-03-16T08:49:11.177Z,99827.34
2023-03-16T08:50:14.133Z,99830.72
2023-03-16T08:51:19.164Z,99834.16
2023-03-16T08:52:23.175Z,99836.19
2023-03-16T08:53:28.432Z,99835.53
2023-03-16T08:54:32.608Z,99824.53
2023-03-16T08:55:37.249Z,99815.13
2023-03-16T08:56:39.779Z,99835.25
2023-03-16T08:57:45.398Z,99822.84
2023-03-16T08:58:50.612Z,99824.59
2023-03-16T08:59:55.159Z,99826.44
2023-03-16T09:00:57.807Z,99830.06
2023-03-16T09:02:01.535Z,99824.19
2023-03-16T09:03:05.244Z,99827.72
2023-03-16T09:04:07.908Z,99830.53
2023-03-16T09:05:15.005Z,99839.19
2023-03-16T09:06:19.292Z,99837.75
2023-03-16T09:07:22.102Z,99839.75
2023-03-16T09:08:25.825Z,99806.88
2023-03-16T09:09:29.144Z,99834.84
2023-03-16T09:10:33.403Z,99835.91
2023-03-16T09:11:36.528Z,99834.44
2023-03-16T09:12:41.147Z,99833.84
2023-03-16T09:13:44.956Z,99834.00
2023-03-16T09:14:49.335Z,99832.72
2023-03-16T09:15:51.938Z,99835.63
2023-03-16T09:16:57.128Z,99831.56
2023-03-16T09:18:01.086Z,99835.03
2023-03-16T09:19:05.915Z,99838.19
2023-03-16T09:20:21.915Z,99834.72
2023-03-16T09:21:27.309Z,99837.38
2023-03-16T09:22:31.051Z,99833.84
2023-03-16T09:23:37.672Z,99837.38
2023-03-16T09:24:40.501Z,99838.50
2023-03-16T09:25:45.547Z,99837.25
2023-03-16T09:26:48.291Z,99833.47
2023-03-16T09:27:54.632Z,99824.72
2023-03-16T09:28:57.327Z,99805.44
2023-03-16T09:30:02.080Z,99826.78
2023-03-16T09:31:06.186Z,99827.75
2023-03-16T09:32:10.077Z,99819.22
2023-03-16T09:33:13.913Z,99813.38
2023-03-16T09:34:17.609Z,99818.97
2023-03-16T09:35:19.873Z,99811.25
2023-03-16T09:36:23.670Z,99818.09
2023-03-16T09:37:27.872Z,99815.00
2023-03-16T09:38:33.372Z,99811.69
2023-03-16T09:39:37.332Z,99810.50
2023-03-16T09:40:42.917Z,99813.81
2023-03-16T09:41:52.797Z,99815.97
2023-03-16T09:43:11.457Z,99816.53
2023-03-16T09:44:29.446Z,99819.13
2023-03-16T09:45:40.383Z,99815.75
2023-03-16T09:46:48.130Z,99808.03
2023-03-16T09:47:52.683Z,99807.22
2023-03-16T09:48:58.102Z,99811.25
2023-03-16T09:50:05.597Z,99801.28
2023-03-16T09:51:19.248Z,99811.47
2023-03-16T09:52:34.401Z,99811.47
2023-03-16T09:53:40.077Z,99796.47
2023-03-16T09:54:49.626Z,99795.81
2023-03-16T09:55:56.025Z,99795.47
2023-03-16T09:57:01.924Z,99801.59
2023-03-16T09:58:06.272Z,99802.19
2023-03-16T09:59:14.314Z,99804.72
2023-03-16T10:00:20.280Z,99805.44
2023-03-16T10:01:36.061Z,99802.03
2023-03-16T10:03:02.649Z,99800.72
2023-03-16T10:04:28.090Z,99793.53
2023-03-16T10:05:32.449Z,99786.50
2023-03-16T10:06:43.416Z,99787.25
2023-03-16T10:07:57.938Z,99793.22
2023-03-16T10:09:18.319Z,99781.31
2023-03-16T10:10:41.904Z,99788.06
2023-03-16T10:11:48.762Z,99787.56
2023-03-16T10:12:54.549Z,99779.03
2023-03-16T10:14:05.834Z,99783.28
2023-03-16T10:15:15.303Z,99775.56
2023-03-16T10:16:21.709Z,99779.94
2023-03-16T10:17:30.223Z,99759.97
2023-03-16T10:18:42.793Z,99767.69
2023-03-16T10:19:51.449Z,99776.03
2023-03-16T10:20:55.858Z,99779.13
2023-03-16T10:22:04.186Z,99772.56
2023-03-16T10:23:17.611Z,99764.25
2023-03-16T10:24:35.902Z,99770.53
2023-03-16T10:25:47.756Z,99769.84
2023-03-16T10:27:00.406Z,99763.16
2023-03-16T10:28:03.315Z,99766.38
2023-03-16T10:29:12.554Z,99767.34
2023-03-16T10:30:22.433Z,99764.69
2023-03-16T10:31:25.883Z,99748.59
2023-03-16T10:32:34.818Z,99747.91
2023-03-16T10:33:38.502Z,99751.38
2023-03-16T10:34:44.838Z,99758.41
2023-03-16T10:35:50.879Z,99756.97
2023-03-16T10:36:55.338Z,99756.88
2023-03-16T10:37:59.348Z,99756.38
2023-03-16T10:39:07.790Z,99749.44
2023-03-16T10:40:13.185Z,99752.38
2023-03-16T10:41:25.772Z,99748.38
2023-03-16T10:42:29.648Z,99752.06
2023-03-16T10:43:32.451Z,99748.88
2023-03-16T10:44:42.069Z,99752.38
2023-03-16T10:45:46.767Z,99753.28
2023-03-16T10:46:53.709Z,99744.84
2023-03-16T10:48:07.984Z,99743.91
2023-03-16T10:49:27.411Z,99743.56
2023-03-16T10:50:32.230Z,99744.13
2023-03-16T10:51:37.183Z,99737.66
2023-03-16T10:52:44.154Z,99741.03
2023-03-16T10:53:47.904Z,99733.78
2023-03-16T10:54:54.763Z,99728.50
2023-03-16T10:56:03.369Z,99723.09
2023-03-16T10:57:17.073Z,99730.13
2023-03-16T10:58:29.647Z,99726.63
2023-03-16T10:59:35.367Z,99720.72
2023-03-16T11:00:43.443Z,99729.13
2023-03-16T11:01:50.423Z,99729.13
2023-03-16T11:02:55.606Z,99718.44
2023-03-16T11:04:01.050Z,99725.22
2023-03-16T11:05:16.247Z,99716.34
2023-03-16T11:06:23.133Z,99716.09
2023-03-16T11:07:27.878Z,99727.81
2023-03-16T11:08:34.596Z,99719.09
2023-03-16T11:09:38.716Z,99722.66
2023-03-16T11:10:54.972Z,99728.22
2023-03-16T11:11:59.540Z,99721.16
2023-03-16T11:13:02.617Z,99730.28
2023-03-16T11:14:15.555Z,99724.81
2023-03-16T11:15:25.760Z,99723.47
2023-03-16T11:16:37.207Z,99722.19
2023-03-16T11:17:45.169Z,99718.34
2023-03-16T11:18:53.524Z,99702.81
2023-03-16T11:20:02.349Z,99714.06
2023-03-16T11:21:13.115Z,99711.91
2023-03-16T11:22:20.182Z,99702.34
2023-03-16T11:23:31.576Z,99713.59
2023-03-16T11:24:46.316Z,99716.06
2023-03-16T11:25:56.282Z,99714.03
2023-03-16T11:27:00.118Z,99717.88
2023-03-16T11:28:15.613Z,99722.00
2023-03-16T11:29:25.356Z,99711.28
2023-03-16T11:30:32.393Z,99716.19
2023-03-16T11:31:43.674Z,99715.63
2023-03-16T11:32:49.550Z,99720.34
2023-03-16T11:33:55.690Z,99715.84
2023-03-16T11:34:58.834Z,99709.25
2023-03-16T11:36:18.905Z,99706.78
2023-03-16T11:37:34.245Z,99716.16
2023-03-16T11:38:44.510Z,99709.97
2023-03-16T11:40:02.500Z,99703.16
2023-03-16T11:41:11.972Z,99694.56
2023-03-16T11:42:31.281Z,99704.81
2023-03-16T11:43:53.201Z,99696.41
2023-03-16T11:45:01.938Z,99694.91
2023-03-16T11:46:17.230Z,99678.09
2023-03-16T11:47:52.816Z,99680.22
2023-03-16T11:49:10.992Z,99680.13
2023-03-16T11:50:18.949Z,99685.97
2023-03-16T11:51:36.659Z,99691.22
2023-03-16T11:52:49.846Z,99691.75
2023-03-16T11:54:03.431Z,99684.69
2023-03-16T11:55:21.592Z,99679.06
2023-03-16T11:56:34.687Z,99698.19
2023-03-16T11:57:50.634Z,99672.63
2023-03-16T11:59:06.404Z,99670.13
2023-03-16T12:00:22.269Z,99672.88
2023-03-16T12:01:43.055Z,99679.63
2023-03-16T12:02:56.502Z,99678.97
2023-03-16T12:04:16.435Z,99675.69
2023-03-16T12:05:44.398Z,99673.28
2023-03-16T12:07:01.469Z,99667.38
2023-03-16T12:08:31.554Z,99662.41
2023-03-16T12:09:59.212Z,99665.38
2023-03-16T12:11:06.263Z,99665.28
2023-03-16T12:12:26.150Z,99656.78
2023-03-16T12:13:40.292Z,99648.69
2023-03-16T12:14:47.919Z,99651.66
2023-03-16T12:15:56.113Z,99657.59
2023-03-16T12:17:03.146Z,99655.03
2023-03-16T12:18:16.045Z,99653.28
2023-03-16T12:19:25.946Z,99642.34
2023-03-16T12:20:32.315Z,99647.59
2023-03-16T12:21:40.360Z,99628.66
2023-03-16T12:22:47.268Z,99633.94
2023-03-16T12:23:53.713Z,99642.28
2023-03-16T12:24:56.284Z,99635.16
2023-03-16T12:26:01.369Z,99641.56
2023-03-16T12:27:05.515Z,99634.66
2023-03-16T12:28:19.446Z,99636.09
2023-03-16T12:29:32.746Z,99640.88
2023-03-16T12:30:44.163Z,99644.09
2023-03-16T12:31:56.033Z,99636.66
2023-03-16T12:33:06.134Z,99634.56
2023-03-16T12:34:18.803Z,99639.53
2023-03-16T12:35:31.003Z,99641.91
2023-03-16T12:37:03.994Z,99631.41
2023-03-16T12:38:27.778Z,99633.19
2023-03-16T12:39:47.922Z,99639.28
2023-03-16T12:41:03.889Z,99631.06
2023-03-16T12:42:21.749Z,99613.50
2023-03-16T12:43:46.767Z,99633.88
2023-03-16T12:44:56.825Z,99637.25
2023-03-16T12:46:03.027Z,99640.94
2023-03-16T12:47:15.563Z,99638.31